Flight Track Log - Related Links

Times and Time Zones

All times are in EDT time to prevent confusion due to time zone crossing. See the DAL1890 flight status page for this flight to view local times or setup timezone preferences in your user account.

Time Position Orientation Groundspeed Altitude Reporting Facility
EDT Latitude Longitude Course Direction KTS MPH feet Rate Location/Type
Wed 07:15:19 AM 32.8833 -97.0333 65° Northeast 159 183 1,500  Level Dallas / Fort Worth TRACON
Wed 07:16:07 AM 32.8500 -97.0333 180° South 188 216 2,800 2,294 Climbing Dallas / Fort Worth TRACON
Wed 07:17:01 AM 32.8000 -97.0333 180° South 239 275 5,400 3,105 Climbing Dallas / Fort Worth TRACON
Wed 07:18:00 AM 32.7258 -96.6728 68° East  Level FlightAware Approximate
Wed 07:18:01 AM 32.7167 -97.0167 170° South 272 313 8,700  Level Dallas / Fort Worth TRACON
Wed 07:19:00 AM 32.7707 -96.5395 65° Northeast  Level FlightAware Approximate
Wed 07:19:01 AM 32.6833 -96.9333 115° Southeast 337 388 10,000  Level Dallas / Fort Worth TRACON
Wed 07:20:00 AM 32.8210 -96.4088 65° Northeast  Level FlightAware Approximate
Wed 07:21:01 AM 32.7292 -96.7169 76° East 342 394 13,600  Level Fort Worth Center
Wed 07:22:01 AM 32.7642 -96.6203 67° East 347 399 16,000 2,500 Climbing Fort Worth Center
Wed 07:23:01 AM 32.8069 -96.4939 68° East 364 419 18,600 2,050 Climbing Fort Worth Center
Wed 07:24:01 AM 32.8519 -96.3672 67° East 395 455 20,100 1,600 Climbing Fort Worth Center
Wed 07:25:01 AM 32.8675 -96.2261 82° East 409 471 21,800 1,850 Climbing Fort Worth Center
Wed 07:26:01 AM 32.8703 -96.0803 89° East 435 501 23,800 1,850 Climbing Fort Worth Center
Wed 07:27:01 AM 32.8728 -95.9294 89° East 449 517 25,500 1,750 Climbing Fort Worth Center
Wed 07:28:01 AM 32.8750 -95.7833 89° East 449 517 27,300 1,450 Climbing Fort Worth Center
Wed 07:29:01 AM 32.8772 -95.6300 89° East 454 522 28,400 1,350 Climbing Fort Worth Center
Wed 07:30:01 AM 32.8750 -95.4889 91° East 460 529 30,000 1,300 Climbing Fort Worth Center
Wed 07:31:01 AM 32.8853 -95.3378 85° East 460 529 31,000 500 Climbing Fort Worth Center
Wed 07:32:01 AM 32.9056 -95.1864 81° East 460 529 31,000  Level Fort Worth Center
Wed 07:33:01 AM 32.9278 -95.0350 80° East 460 529 31,000  Level Fort Worth Center
Wed 07:34:01 AM 32.9519 -94.8858 79° East 466 536 31,000  Level Fort Worth Center
Wed 07:35:01 AM 32.9739 -94.7342 80° East 466 536 31,000  Level Fort Worth Center
Wed 07:36:01 AM 32.9978 -94.5772 80° East 466 536 31,000  Level Fort Worth Center
Wed 07:37:01 AM 33.0211 -94.4206 80° East 471 542 31,000  Level Fort Worth Center
Wed 07:38:01 AM 33.0403 -94.2639 82° East 471 542 31,000  Level Fort Worth Center
Wed 07:39:01 AM 33.0278 -94.1031 95° East 471 542 31,000  Level Fort Worth Center
Wed 07:40:02 AM 33.0089 -93.9428 98° East 476 548 31,000  Level Fort Worth Center
Wed 07:41:01 AM 32.9961 -93.7850 95° East 483 556 31,000  Level Fort Worth Center
Wed 07:42:01 AM 32.9808 -93.6197 96° East 483 556 31,000  Level Fort Worth Center
Wed 07:43:01 AM 32.9633 -93.4619 97° East 483 556 31,000  Level Fort Worth Center
Wed 07:44:01 AM 32.9478 -93.3042 97° East 483 556 31,000  Level Fort Worth Center
Wed 07:45:01 AM 32.9300 -93.1417 97° East 483 556 31,000  Level Fort Worth Center
Wed 07:46:01 AM 32.9142 -92.9842 97° East 483 556 31,000  Level Fort Worth Center
Wed 07:47:01 AM 32.8981 -92.8267 97° East 483 556 31,000  Level Fort Worth Center
Wed 07:48:44 AM 32.8639 -92.5411 98° East 484 557 31,000  Level Memphis Center
Wed 07:49:44 AM 32.8456 -92.3850 98° East 484 557 31,000  Level Memphis Center
Wed 07:50:44 AM 32.8272 -92.2289 98° East 484 557 31,000  Level Memphis Center
Wed 07:51:44 AM 32.8106 -92.0703 97° East 479 551 31,000  Level Memphis Center
Wed 07:52:44 AM 32.7856 -91.9167 101° East 479 551 31,000  Level Memphis Center
Wed 07:53:44 AM 32.7683 -91.7631 98° East 479 551 31,000  Level Memphis Center
Wed 07:54:44 AM 32.7533 -91.6194 97° East 486 559 31,000  Level Memphis Center
Wed 07:55:44 AM 32.7317 -91.4636 99° East 486 559 31,000  Level Memphis Center
Wed 07:56:44 AM 32.7142 -91.3078 98° East 486 559 31,000  Level Memphis Center
Wed 07:57:44 AM 32.6944 -91.1497 98° East 486 559 31,000  Level Memphis Center
Wed 07:58:44 AM 32.6767 -90.9917 98° East 486 559 31,000  Level Memphis Center
Wed 07:59:44 AM 32.6544 -90.8336 99° East 486 559 31,000  Level Memphis Center
Wed 08:00:44 AM 32.6339 -90.6806 99° East 481 554 31,000  Level Memphis Center
Wed 08:01:44 AM 32.6133 -90.5200 99° East 481 554 31,000  Level Memphis Center
Wed 08:02:44 AM 32.5925 -90.3647 99° East 486 559 31,000  Level Memphis Center
Wed 08:03:44 AM 32.5717 -90.2069 99° East 481 554 31,000  Level Memphis Center
Wed 08:04:44 AM 32.5525 -90.0492 98° East 486 559 31,000  Level Memphis Center
Wed 08:05:44 AM 32.5289 -89.8744 99° East 486 559 31,000  Level Memphis Center
Wed 08:06:44 AM 32.5075 -89.7169 99° East 486 559 31,000  Level Memphis Center
Wed 08:07:44 AM 32.4856 -89.5594 99° East 486 559 31,000  Level Memphis Center
Wed 08:08:44 AM 32.4636 -89.3994 99° East 486 559 31,000  Level Memphis Center
Wed 08:09:44 AM 32.4414 -89.2422 99° East 481 554 31,000  Level Memphis Center
Wed 08:10:44 AM 32.4211 -89.0875 99° East 486 559 31,000  Level Memphis Center
Wed 08:11:44 AM 32.3964 -88.9303 101° East 486 559 31,000  Level Memphis Center
Wed 08:12:44 AM 32.3883 -88.7731 93° East 486 559 31,000  Level Memphis Center
Wed 08:14:34 AM 32.4153 -88.5019 83° East 466 536 31,000  Level Atlanta Center
Wed 08:15:33 AM 32.4331 -88.3528 82° East 466 536 31,000  Level Atlanta Center
Wed 08:16:34 AM 32.4506 -88.2036 82° East 461 531 31,000  Level Atlanta Center
Wed 08:17:33 AM 32.4683 -88.0517 82° East 461 531 31,000  Level Atlanta Center
Wed 08:18:33 AM 32.4831 -87.9144 83° East 466 536 31,000  Level Atlanta Center
Wed 08:19:34 AM 32.5147 -87.7656 76° East 461 531 31,000  Level Atlanta Center
Wed 08:20:34 AM 32.5483 -87.6192 75° East 461 531 31,000  Level Atlanta Center
Wed 08:21:33 AM 32.5819 -87.4628 76° East 455 524 31,000  Level Atlanta Center
Wed 08:22:34 AM 32.6133 -87.3136 76° East 455 524 31,000  Level Atlanta Center
Wed 08:23:33 AM 32.6442 -87.1667 76° East 455 524 31,000 -403 Level Atlanta Center
Wed 08:24:33 AM 32.6747 -87.0247 76° East 449 517 30,200 -893 Descending Atlanta Center
Wed 08:25:34 AM 32.7075 -86.8753 75° East 449 517 29,200 -992 Descending Atlanta Center
Wed 08:26:34 AM 32.7378 -86.7331 76° East 449 517 28,200 -1,008 Descending Atlanta Center
Wed 08:27:33 AM 32.7703 -86.5858 75° East 449 517 27,200 -958 Descending Atlanta Center
Wed 08:28:33 AM 32.8003 -86.4358 77° East 459 528 26,300 -950 Descending Atlanta Center
Wed 08:29:33 AM 32.8281 -86.2983 76° East 447 514 25,300 -1,000 Descending Atlanta Center
Wed 08:30:33 AM 32.8597 -86.1531 75° East 442 509 24,300 -1,190 Descending Atlanta Center
Wed 08:31:34 AM 32.8872 -86.0103 77° East 442 509 22,900 -1,400 Descending Atlanta Center
Wed 08:32:33 AM 32.9164 -85.8775 75° East 430 495 21,500 -1,462 Descending Atlanta Center
Wed 08:33:33 AM 32.9456 -85.7419 76° East 424 488 20,000 -1,400 Descending Atlanta Center
Wed 08:34:33 AM 32.9869 -85.6114 69° East 411 473 18,700 -1,250 Descending Atlanta Center
Wed 08:35:33 AM 33.0303 -85.4858 68° East 411 473 17,500 -1,250 Descending Atlanta Center
Wed 08:36:33 AM 33.0733 -85.3625 67° East 401 461 16,200 -1,300 Descending Atlanta Center
Wed 08:37:33 AM 33.1142 -85.2392 68° East 401 461 14,900 -1,100 Descending Atlanta Center
Wed 08:38:33 AM 33.1572 -85.1158 67° East 395 455 14,000 -450 Descending Atlanta Center
Wed 08:39:33 AM 33.1975 -85.0119 65° Northeast 388 447 14,000 -595 Level Atlanta Center
Wed 08:40:34 AM 33.2694 -84.9158 48° Northeast 378 435 12,800 -1,000 Descending Atlanta Center
Wed 08:41:33 AM 33.3408 -84.8244 47° Northeast 371 427 12,000 -417 Descending Atlanta Center
Wed 08:42:29 AM 33.4167 -84.7167 50° Northeast 374 430 12,000  Level Atlanta TRACON
Wed 08:43:29 AM 33.4833 -84.6333 46° Northeast 346 398 12,000 -100 Level Atlanta TRACON
Wed 08:44:29 AM 33.5333 -84.5667 48° Northeast 274 315 11,800 -600 Descending Atlanta TRACON
Wed 08:45:29 AM 33.5500 -84.4667 79° East 268 308 10,800 -1,100 Descending Atlanta TRACON
Wed 08:46:29 AM 33.5500 -84.4000 90° East 239 275 9,600 -2,100 Descending Atlanta TRACON
Wed 08:47:29 AM 33.5500 -84.3167 90° East 212 244 6,600 -2,800 Descending Atlanta TRACON
Wed 08:48:29 AM 33.5500 -84.2500 90° East 212 244 4,000 -1,800 Descending Atlanta TRACON
Wed 08:49:29 AM 33.5833 -84.2167 40° Northeast 171 197 3,000 -500 Descending Atlanta TRACON
Wed 08:50:29 AM 33.6167 -84.2500 320° Northwest 165 190 3,000  Level Atlanta TRACON

Login

Don't have an account? Register now (free) for customized features, flight alerts, and more!